Time;durP1;ratioP1;P1;durP2;ratioP2;P2;SDS_P1;SDS_P2;PMS_P1;PMS_P2;Temp;Humidity;BMP_temperature;BMP_pressure;BME280_temperature;BME280_humidity;BME280_pressure;Samples;Min_cycle;Max_cycle;Signal;HPM_P1;HPM_P2
2021/03/28 10:48:41;;;;;;;10.93;4.90;;;19.70;37.80;;;;;;5107933;27;20492;-61
2021/03/28 10:51:30;;;;;;;9.55;5.55;;;19.30;35.90;;;;;;4925862;28;60851;-58
2021/03/28 10:54:23;;;;;;;11.77;7.55;;;19.30;35.60;;;;;;5009740;28;20049;-56
2021/03/28 11:21:35;;;;;;;;;;;18.70;38.40;;;;;;20681287;28;78882;-59
2021/03/28 11:31:54;;;;;;;9.13;5.43;;;18.70;37.70;;;;;;20400330;28;70394;-54
2021/03/28 12:15:22;;;;;;;9.88;4.95;;;;;;;;;;20752272;27;20397;-53
2021/03/28 12:28:30;;;;;;;8.75;3.80;;;20.20;33.60;;;;;;20948462;27;20759;-55
2021/03/28 12:38:39;;;;;;;8.48;3.97;;;20.00;33.30;;;;;;20983425;28;20060;-56
2021/03/28 12:48:40;;;;;;;4.65;3.20;;;19.90;33.70;;;;;;20982782;28;20025;-56
2021/03/28 12:58:43;;;;;;;8.95;3.90;;;20.00;32.40;;;;;;20982442;28;20041;-58
2021/03/28 13:08:54;;;;;;;8.82;3.25;;;20.20;32.40;;;;;;20981007;28;20412;-57
2021/03/28 13:18:58;;;;;;;6.20;3.22;;;20.00;32.50;;;;;;20980101;28;20041;-59
2021/03/28 13:29:13;;;;;;;7.63;3.65;;;20.00;31.60;;;;;;20979588;28;20020;-57
2021/03/28 13:39:17;;;;;;;6.97;3.63;;;20.50;30.30;;;;;;20924784;28;20119;-56
2021/03/28 13:49:28;;;;;;;6.18;2.53;;;20.90;29.70;;;;;;20923128;28;20017;-56
2021/03/28 13:59:31;;;;;;;7.13;2.92;;;21.20;29.20;;;;;;20922476;28;20059;-57
2021/03/28 14:09:39;;;;;;;6.60;3.13;;;21.20;29.20;;;;;;20921172;28;20036;-57
2021/03/28 14:19:40;;;;;;;24.30;4.32;;;21.20;29.10;;;;;;20920473;28;20124;-57
2021/03/28 14:29:42;;;;;;;10.02;3.35;;;21.30;29.00;;;;;;20919632;28;20074;-57
2021/03/28 14:40:20;;;;;;;7.20;2.30;;;21.40;29.20;;;;;;20918773;28;20491;-56
2021/03/28 14:50:45;;;;;;;4.60;2.65;;;21.80;28.70;;;;;;20917120;28;20037;-56
2021/03/28 15:00:52;;;;;;;9.60;2.70;;;22.00;29.00;;;;;;20916757;28;20037;-54
2021/03/28 15:11:12;;;;;;;4.53;2.40;;;22.10;28.60;;;;;;20916569;28;20049;-54
2021/03/28 15:21:31;;;;;;;6.43;2.90;;;22.10;28.30;;;;;;20914064;28;20107;-56
2021/03/28 15:32:29;;;;;;;9.70;3.33;;;22.10;27.50;;;;;;20914450;28;20025;-55
2021/03/28 15:42:35;;;;;;;10.90;2.83;;;22.20;26.60;;;;;;20741726;28;20445;-53
2021/03/28 15:53:12;;;;;;;5.65;2.50;;;22.40;26.40;;;;;;20740159;28;20040;-53
2021/03/28 16:03:24;;;;;;;6.40;2.20;;;22.30;26.70;;;;;;20739728;28;20116;-56
2021/03/28 16:14:00;;;;;;;11.93;3.83;;;22.30;27.10;;;;;;20894927;28;20629;-56
2021/03/28 16:24:26;;;;;;;7.18;3.08;;;22.20;26.90;;;;;;20892703;28;20110;-54
2021/03/28 16:34:43;;;;;;;8.77;2.90;;;22.20;27.70;;;;;;20911215;28;20029;-57
2021/03/28 16:44:56;;;;;;;7.40;3.40;;;22.10;28.30;;;;;;20911023;28;20045;-56
2021/03/28 16:55:22;;;;;;;7.68;3.20;;;21.90;28.60;;;;;;20910864;28;20032;-57
2021/03/28 17:05:31;;;;;;;9.02;3.10;;;21.90;28.40;;;;;;20910482;28;20507;-57
2021/03/28 17:15:35;;;;;;;5.40;3.05;;;21.80;28.30;;;;;;20925828;28;20071;-57
2021/03/28 17:25:43;;;;;;;8.48;2.63;;;21.60;28.90;;;;;;20924515;28;20087;-56
2021/03/28 17:35:45;;;;;;;5.45;2.47;;;21.40;29.30;;;;;;20924072;28;20037;-56
2021/03/28 17:45:46;;;;;;;5.00;2.40;;;21.30;28.80;;;;;;20923040;28;20037;-54
2021/03/28 17:55:48;;;;;;;9.70;2.45;;;21.20;28.80;;;;;;20881117;28;20129;-57
2021/03/28 18:06:00;;;;;;;14.90;3.93;;;21.10;29.50;;;;;;20757198;28;20065;-57
2021/03/28 18:16:08;;;;;;;8.43;3.10;;;21.10;29.50;;;;;;20756619;28;20042;-56
2021/03/28 18:26:35;;;;;;;9.98;2.53;;;20.80;30.60;;;;;;20753897;28;20073;-57
2021/03/28 18:36:39;;;;;;;4.38;2.53;;;20.70;31.40;;;;;;20755152;28;20049;-56
2021/03/28 18:46:59;;;;;;;5.40;2.92;;;20.20;32.20;;;;;;20754495;28;20038;-55
2021/03/28 18:57:14;;;;;;;6.38;2.90;;;19.80;33.00;;;;;;20754040;28;20428;-56
2021/03/28 19:07:26;;;;;;;10.98;3.47;;;19.60;33.40;;;;;;20752257;28;20026;-57
2021/03/28 19:17:27;;;;;;;7.78;3.15;;;19.30;33.50;;;;;;20752053;28;20104;-58
2021/03/28 19:27:45;;;;;;;6.43;2.42;;;19.00;33.90;;;;;;20750955;28;20201;-56
2021/03/28 19:37:52;;;;;;;6.30;3.72;;;18.90;34.00;;;;;;20750822;28;20104;-56
2021/03/28 19:47:52;;;;;;;6.00;2.67;;;18.70;34.30;;;;;;20750681;28;20038;-56
2021/03/28 19:57:53;;;;;;;10.85;3.08;;;18.40;34.50;;;;;;20748631;28;20030;-55
2021/03/28 20:08:09;;;;;;;9.10;3.67;;;18.30;34.90;;;;;;20749789;28;20050;-57
2021/03/28 20:18:12;;;;;;;5.28;3.55;;;18.20;34.70;;;;;;20749056;28;20084;-55
2021/03/28 20:28:22;;;;;;;6.17;3.13;;;18.10;34.90;;;;;;20747915;28;20061;-57
2021/03/28 20:38:24;;;;;;;4.10;2.60;;;18.00;34.70;;;;;;20746801;28;20032;-55
2021/03/28 20:48:33;;;;;;;5.93;2.70;;;17.90;34.60;;;;;;20761305;28;20080;-56
2021/03/28 20:58:37;;;;;;;6.45;3.08;;;17.80;34.70;;;;;;20745217;28;20500;-55
2021/03/28 21:08:40;;;;;;;;;;;17.70;34.90;;;;;;20762237;28;20477;-55
2021/03/28 21:18:45;;;;;;;8.70;2.80;;;17.30;34.90;;;;;;20759663;28;19936;-56
2021/03/28 21:28:46;;;;;;;6.70;2.80;;;17.30;35.20;;;;;;20760714;28;20052;-57
2021/03/28 21:38:51;;;;;;;4.90;2.20;;;17.20;35.60;;;;;;20759688;28;20081;-57
2021/03/28 21:48:53;;;;;;;6.07;1.98;;;17.20;35.50;;;;;;20759768;28;20508;-55
2021/03/28 21:58:55;;;;;;;2.97;2.05;;;17.00;35.30;;;;;;20758383;28;20080;-54
2021/03/28 22:08:56;;;;;;;4.63;2.72;;;16.90;34.90;;;;;;20757600;28;20030;-54
2021/03/28 22:18:57;;;;;;;5.65;2.30;;;16.70;34.90;;;;;;20755609;28;20084;-56
2021/03/28 22:29:06;;;;;;;7.15;2.75;;;16.60;34.80;;;;;;20756360;28;20070;-56
2021/03/28 22:39:09;;;;;;;5.13;2.83;;;16.50;35.50;;;;;;20756156;28;20030;-55
2021/03/28 22:49:11;;;;;;;5.82;2.60;;;16.40;35.20;;;;;;20755116;28;20440;-57
2021/03/28 22:59:14;;;;;;;3.03;2.00;;;16.30;35.20;;;;;;20754091;28;20046;-55
2021/03/28 23:09:15;;;;;;;4.17;2.43;;;16.30;34.60;;;;;;20752444;28;20057;-55
2021/03/28 23:19:17;;;;;;;6.88;2.38;;;16.20;35.20;;;;;;20753073;28;20484;-56
2021/03/28 23:29:19;;;;;;;5.63;2.42;;;16.20;35.30;;;;;;20752220;28;20485;-57
2021/03/28 23:39:20;;;;;;;6.15;2.53;;;16.20;35.70;;;;;;20751419;28;20042;-57
2021/03/28 23:49:25;;;;;;;7.75;2.63;;;16.10;35.70;;;;;;20750916;28;20101;-56
2021/03/28 23:59:27;;;;;;;5.32;3.05;;;16.00;35.70;;;;;;20750585;28;20045;-57
